createdAt,value
2018-04-26T00:00:25.267Z,68.89
2018-04-26T00:02:52.943Z,68.76
2018-04-26T00:05:20.557Z,69.11
2018-04-26T00:07:48.165Z,69.61
2018-04-26T00:10:15.868Z,69.36
2018-04-26T00:12:43.494Z,68.95
2018-04-26T00:15:11.242Z,68.52
2018-04-26T00:17:38.891Z,68.67
2018-04-26T00:20:06.522Z,68.57
2018-04-26T00:22:34.187Z,68.51
2018-04-26T00:25:01.837Z,69.15
2018-04-26T00:27:29.469Z,68.49
2018-04-26T00:29:57.114Z,68.73
2018-04-26T00:32:24.786Z,69.40
2018-04-26T00:34:52.391Z,69.06
2018-04-26T00:37:20.095Z,68.46
2018-04-26T00:39:47.803Z,69.54
2018-04-26T00:42:15.405Z,69.08
2018-04-26T00:44:43.071Z,69.93
2018-04-26T00:47:10.736Z,70.79
2018-04-26T00:49:38.332Z,70.34
2018-04-26T00:52:05.972Z,70.89
2018-04-26T00:54:33.588Z,70.32
2018-04-26T00:57:01.293Z,70.70
2018-04-26T00:59:28.942Z,71.35
2018-04-26T01:01:56.684Z,70.05
2018-04-26T01:04:24.270Z,68.76
2018-04-26T01:06:51.877Z,69.14
2018-04-26T01:09:19.526Z,69.98
2018-04-26T01:11:47.147Z,70.12
2018-04-26T01:14:14.834Z,70.55
2018-04-26T01:16:42.472Z,70.11
2018-04-26T01:19:10.056Z,69.79
2018-04-26T01:21:37.701Z,69.76
2018-04-26T01:24:05.322Z,70.03
2018-04-26T01:26:32.977Z,69.56
2018-04-26T01:29:00.566Z,68.94
2018-04-26T01:31:28.240Z,67.31
2018-04-26T01:33:55.939Z,68.80
2018-04-26T01:36:35.360Z,70.14
2018-04-26T01:39:03.018Z,72.07
2018-04-26T01:41:30.604Z,72.62
2018-04-26T01:43:58.263Z,73.36
2018-04-26T01:46:25.870Z,72.56
2018-04-26T01:48:53.592Z,73.45
2018-04-26T01:51:21.228Z,75.81
2018-04-26T01:53:49.311Z,75.16
2018-04-26T01:56:16.900Z,76.94
2018-04-26T01:58:44.552Z,76.53
2018-04-26T02:01:12.189Z,77.24
2018-04-26T02:03:39.768Z,75.97
2018-04-26T02:06:07.429Z,77.05
2018-04-26T02:08:35.050Z,76.55
2018-04-26T02:11:02.701Z,76.79
2018-04-26T02:13:30.311Z,76.87
2018-04-26T02:15:57.937Z,75.71
2018-04-26T02:18:25.597Z,75.44
2018-04-26T02:20:53.250Z,75.57
2018-04-26T02:23:20.886Z,77.60
2018-04-26T02:25:48.570Z,78.13
2018-04-26T02:28:16.174Z,78.65
2018-04-26T02:30:43.824Z,77.66
2018-04-26T02:33:11.427Z,78.11
2018-04-26T02:35:39.077Z,79.20
2018-04-26T02:38:06.784Z,78.14
2018-04-26T02:40:34.406Z,78.82
2018-04-26T02:43:02.064Z,78.87
2018-04-26T02:45:29.772Z,78.41
2018-04-26T02:47:57.471Z,78.25
2018-04-26T02:50:58.577Z,77.97
2018-04-26T02:53:26.232Z,77.68
2018-04-26T02:55:53.824Z,77.64
2018-04-26T02:58:21.431Z,77.98
2018-04-26T03:00:49.145Z,79.38
2018-04-26T03:03:16.735Z,79.01
2018-04-26T03:05:44.390Z,78.52
2018-04-26T03:08:12.037Z,78.37
2018-04-26T03:10:39.707Z,78.21
2018-04-26T03:13:07.336Z,78.43
2018-04-26T03:15:34.959Z,78.58
2018-04-26T03:18:02.826Z,79.05
2018-04-26T03:20:30.479Z,79.05
2018-04-26T03:22:58.072Z,79.50
2018-04-26T03:25:25.720Z,79.26
2018-04-26T03:27:53.418Z,78.71
2018-04-26T03:30:21.077Z,77.96
2018-04-26T03:32:48.749Z,77.97
2018-04-26T03:35:16.402Z,78.45
2018-04-26T03:37:44.102Z,78.90
2018-04-26T03:40:11.733Z,79.09
2018-04-26T03:42:39.342Z,79.44
2018-04-26T03:45:07.014Z,80.15
2018-04-26T03:47:34.665Z,79.98
2018-04-26T03:50:02.325Z,80.29
2018-04-26T03:52:29.963Z,79.96
2018-04-26T03:54:57.614Z,79.78
2018-04-26T03:57:25.255Z,79.71
2018-04-26T04:00:04.819Z,80.04
2018-04-26T04:02:44.200Z,80.31
2018-04-26T04:05:23.469Z,79.94
2018-04-26T04:07:51.161Z,81.43
2018-04-26T04:10:18.892Z,81.00
2018-04-26T04:12:46.513Z,76.67
2018-04-26T04:15:14.111Z,75.64
2018-04-26T04:17:41.861Z,74.51
2018-04-26T04:20:09.503Z,75.10
2018-04-26T04:22:37.178Z,74.17
2018-04-26T04:25:04.839Z,74.04
2018-04-26T04:27:32.861Z,74.52
2018-04-26T04:30:00.509Z,74.14
2018-04-26T04:32:28.191Z,74.19
2018-04-26T04:34:56.156Z,73.13
2018-04-26T04:37:23.919Z,73.64
2018-04-26T04:39:51.515Z,72.91
2018-04-26T04:42:19.336Z,73.40
2018-04-26T04:44:46.977Z,73.67
2018-04-26T04:47:14.774Z,74.21
2018-04-26T04:49:43.106Z,74.55
2018-04-26T04:52:11.233Z,74.67
2018-04-26T04:54:39.077Z,74.88
2018-04-26T04:57:06.740Z,75.12
2018-04-26T04:59:34.351Z,74.71
2018-04-26T05:02:02.110Z,74.73
2018-04-26T05:04:29.869Z,75.29
2018-04-26T05:06:57.651Z,75.51
2018-04-26T05:09:26.074Z,76.24
2018-04-26T05:11:53.696Z,76.56
2018-04-26T05:14:21.527Z,77.02
2018-04-26T05:16:49.738Z,76.75
2018-04-26T05:19:18.173Z,77.31
2018-04-26T05:21:46.248Z,77.79
2018-04-26T05:24:14.001Z,77.22
2018-04-26T05:26:41.876Z,78.00
2018-04-26T05:29:09.849Z,79.06
2018-04-26T05:31:37.498Z,78.99
2018-04-26T05:34:05.585Z,78.73
2018-04-26T05:36:33.450Z,78.83
2018-04-26T05:39:02.144Z,78.94
2018-04-26T05:41:29.888Z,78.26
2018-04-26T05:43:57.798Z,78.68
2018-04-26T05:46:25.524Z,78.33
2018-04-26T05:48:53.150Z,78.21
2018-04-26T05:51:20.957Z,77.64
2018-04-26T05:53:48.737Z,76.69
2018-04-26T05:56:16.389Z,77.34
2018-04-26T05:58:44.029Z,75.51
2018-04-26T06:01:11.802Z,75.96
2018-04-26T06:03:39.509Z,76.22
2018-04-26T06:06:07.245Z,75.55
2018-04-26T06:08:35.111Z,75.23
2018-04-26T06:11:02.876Z,75.44
2018-04-26T06:13:30.517Z,74.47
2018-04-26T06:15:58.609Z,74.58
2018-04-26T06:18:26.213Z,74.58
2018-04-26T06:20:53.931Z,74.12
2018-04-26T06:23:21.583Z,74.29
2018-04-26T06:25:49.516Z,75.11
2018-04-26T06:28:17.186Z,74.59
2018-04-26T06:30:44.927Z,75.23
2018-04-26T06:33:12.659Z,75.19
2018-04-26T06:35:40.343Z,75.15
2018-04-26T06:38:08.162Z,75.72
2018-04-26T06:40:36.729Z,75.41
2018-04-26T06:43:04.431Z,75.25
2018-04-26T06:45:32.038Z,75.19
2018-04-26T06:47:59.689Z,74.82
2018-04-26T06:50:27.495Z,74.85
2018-04-26T06:52:55.271Z,75.18
2018-04-26T06:55:22.876Z,76.49
2018-04-26T06:57:50.542Z,77.14
2018-04-26T07:00:18.178Z,78.18
2018-04-26T07:02:45.781Z,79.31
2018-04-26T07:05:13.451Z,77.47
2018-04-26T07:07:41.079Z,77.29
2018-04-26T07:10:08.763Z,79.04
2018-04-26T07:12:36.375Z,79.18
2018-04-26T07:15:04.024Z,79.00
2018-04-26T07:17:31.629Z,80.74
2018-04-26T07:19:59.272Z,81.03
2018-04-26T07:22:26.858Z,82.38
2018-04-26T07:24:54.514Z,82.15
2018-04-26T07:27:22.109Z,81.97
2018-04-26T07:29:49.769Z,82.20
2018-04-26T07:32:17.434Z,83.03
2018-04-26T07:34:45.092Z,83.63
2018-04-26T07:37:12.729Z,84.17
2018-04-26T07:39:40.376Z,84.37
2018-04-26T07:42:08.041Z,85.55
2018-04-26T07:44:35.690Z,85.35
2018-04-26T07:47:03.392Z,84.81
2018-04-26T07:49:31.031Z,84.61
2018-04-26T07:51:58.696Z,84.32
2018-04-26T07:54:26.330Z,84.24
2018-04-26T07:56:53.939Z,84.69
2018-04-26T07:59:21.592Z,85.43
2018-04-26T08:01:49.395Z,85.75
2018-04-26T08:04:16.918Z,85.07
2018-04-26T08:06:44.526Z,85.39
2018-04-26T08:09:12.172Z,85.40
2018-04-26T08:11:39.822Z,86.03
2018-04-26T08:14:07.431Z,86.05
2018-04-26T08:16:35.191Z,86.42
2018-04-26T08:19:02.830Z,86.01
2018-04-26T08:21:30.501Z,83.94
2018-04-26T08:23:58.112Z,83.67
2018-04-26T08:26:25.813Z,84.75
2018-04-26T08:28:53.403Z,84.34
2018-04-26T08:31:21.119Z,83.62
2018-04-26T08:33:48.878Z,80.03
2018-04-26T08:36:16.512Z,81.51
2018-04-26T08:38:44.170Z,82.56
2018-04-26T08:41:11.775Z,81.53
2018-04-26T08:43:39.514Z,81.53
2018-04-26T08:46:07.210Z,82.24
2018-04-26T08:48:34.799Z,81.92
2018-04-26T08:51:02.803Z,80.64
2018-04-26T08:53:30.548Z,80.89
2018-04-26T08:55:58.208Z,81.37
2018-04-26T08:58:25.873Z,79.94
2018-04-26T09:00:53.517Z,81.34
2018-04-26T09:03:21.197Z,81.40
2018-04-26T09:05:48.848Z,81.87
2018-04-26T09:08:16.417Z,82.02
2018-04-26T09:10:44.040Z,81.63
2018-04-26T09:13:11.637Z,81.56
2018-04-26T09:15:39.317Z,81.05
2018-04-26T09:18:06.933Z,80.95
2018-04-26T09:20:34.623Z,81.36
2018-04-26T09:23:02.243Z,81.44
2018-04-26T09:25:29.872Z,82.85
2018-04-26T09:27:57.579Z,81.45
2018-04-26T09:30:25.264Z,81.43
2018-04-26T09:32:52.899Z,81.25
2018-04-26T09:35:22.475Z,81.40
2018-04-26T09:37:50.122Z,80.72
2018-04-26T09:40:17.763Z,81.42
2018-04-26T09:42:45.407Z,81.67
2018-04-26T09:45:13.041Z,80.92
2018-04-26T09:47:40.642Z,80.54
2018-04-26T09:50:08.289Z,79.07
2018-04-26T09:52:35.953Z,80.38
2018-04-26T09:55:03.600Z,79.98
2018-04-26T09:57:31.296Z,81.07
2018-04-26T09:59:58.883Z,80.22
2018-04-26T10:02:26.554Z,79.63
2018-04-26T10:04:55.469Z,80.48
2018-04-26T10:07:23.234Z,80.81
2018-04-26T10:09:50.961Z,80.62
2018-04-26T10:12:18.579Z,81.61
2018-04-26T10:14:46.281Z,77.33
2018-04-26T10:17:13.908Z,77.14
2018-04-26T10:19:41.796Z,75.32
2018-04-26T10:22:09.469Z,75.66
2018-04-26T10:24:37.065Z,75.97
2018-04-26T10:27:04.781Z,77.51
2018-04-26T10:29:32.549Z,79.53
2018-04-26T10:32:00.245Z,79.59
2018-04-26T10:34:28.846Z,78.46
2018-04-26T10:36:56.510Z,79.60
2018-04-26T10:39:24.174Z,80.51
2018-04-26T10:41:52.589Z,79.78
2018-04-26T10:44:20.255Z,80.77
2018-04-26T10:46:47.907Z,80.11
2018-04-26T10:49:15.572Z,80.18
2018-04-26T10:51:43.200Z,80.12
2018-04-26T10:54:10.964Z,80.46
2018-04-26T10:56:38.569Z,80.32
2018-04-26T10:59:06.252Z,79.19
2018-04-26T11:01:33.950Z,78.96
2018-04-26T11:04:01.611Z,79.39
2018-04-26T11:06:29.317Z,79.52
2018-04-26T11:08:56.954Z,78.86
2018-04-26T11:11:24.675Z,77.25
2018-04-26T11:13:52.314Z,75.76
2018-04-26T11:16:19.972Z,76.10
2018-04-26T11:18:47.573Z,73.39
2018-04-26T11:21:17.460Z,74.23
2018-04-26T11:23:45.113Z,74.93
2018-04-26T11:26:14.032Z,74.77
2018-04-26T11:28:41.831Z,74.95
2018-04-26T11:31:09.597Z,73.22
2018-04-26T11:33:37.233Z,74.25
2018-04-26T11:36:04.950Z,75.39
2018-04-26T11:38:32.639Z,72.77
2018-04-26T11:41:00.305Z,73.18
2018-04-26T11:43:28.038Z,72.87
2018-04-26T11:45:55.653Z,73.82
2018-04-26T11:48:23.343Z,75.50
2018-04-26T11:50:50.965Z,73.44
2018-04-26T11:53:19.776Z,73.48
2018-04-26T11:55:47.439Z,72.68
2018-04-26T11:58:15.093Z,73.00
2018-04-26T12:00:42.780Z,71.24
2018-04-26T12:03:10.470Z,68.51
2018-04-26T12:05:38.105Z,71.75
2018-04-26T12:08:05.758Z,74.41
2018-04-26T12:10:33.493Z,75.70
2018-04-26T12:13:01.164Z,74.64
2018-04-26T12:15:28.790Z,72.78
2018-04-26T12:17:56.494Z,70.90
2018-04-26T12:20:24.157Z,70.35
2018-04-26T12:22:51.984Z,71.23
2018-04-26T12:25:19.674Z,72.46
2018-04-26T12:27:47.317Z,71.41
2018-04-26T12:30:14.987Z,70.99
2018-04-26T12:32:42.717Z,72.40
2018-04-26T12:35:10.340Z,70.03
2018-04-26T12:37:38.016Z,70.41
2018-04-26T12:40:05.740Z,68.66
2018-04-26T12:42:33.486Z,68.38
2018-04-26T12:45:01.097Z,67.87
2018-04-26T12:47:28.801Z,66.69
2018-04-26T12:49:56.453Z,67.84
2018-04-26T12:52:24.077Z,66.04
2018-04-26T12:54:52.620Z,64.03
2018-04-26T12:57:20.279Z,67.19
2018-04-26T12:59:48.034Z,64.85
2018-04-26T13:02:15.697Z,64.13
2018-04-26T13:04:43.458Z,67.80
2018-04-26T13:07:11.050Z,66.59
2018-04-26T13:09:38.697Z,64.99
2018-04-26T13:12:06.387Z,66.58
2018-04-26T13:14:33.990Z,65.06
2018-04-26T13:17:01.579Z,65.76
2018-04-26T13:19:29.236Z,66.66
2018-04-26T13:21:56.896Z,66.40
2018-04-26T13:24:24.587Z,63.66
2018-04-26T13:26:52.453Z,63.50
2018-04-26T13:29:20.138Z,60.87
2018-04-26T13:31:47.797Z,63.48
2018-04-26T13:34:15.477Z,62.70
2018-04-26T13:36:43.110Z,63.54
2018-04-26T13:39:10.799Z,63.33
2018-04-26T13:41:38.501Z,65.29
2018-04-26T13:44:06.157Z,66.95
2018-04-26T13:46:33.855Z,68.75
2018-04-26T13:49:01.524Z,69.14
2018-04-26T13:51:29.182Z,69.60
2018-04-26T13:53:56.840Z,68.96
2018-04-26T13:56:24.463Z,70.19
2018-04-26T13:58:53.110Z,69.20
2018-04-26T14:01:20.728Z,70.71
2018-04-26T14:03:48.435Z,70.48
2018-04-26T14:06:16.161Z,69.51
2018-04-26T14:08:43.836Z,67.89
2018-04-26T14:11:11.488Z,66.32
2018-04-26T14:13:39.086Z,67.04
2018-04-26T14:16:06.752Z,67.54
2018-04-26T14:18:34.411Z,68.74
2018-04-26T14:21:02.106Z,68.42
2018-04-26T14:23:29.799Z,69.01
2018-04-26T14:25:57.491Z,65.93
2018-04-26T14:28:25.183Z,63.56
2018-04-26T14:30:52.885Z,63.66
2018-04-26T14:33:20.652Z,63.99
2018-04-26T14:35:48.510Z,61.69
2018-04-26T14:38:16.221Z,64.86
2018-04-26T14:40:43.924Z,66.02
2018-04-26T14:43:11.722Z,66.53
2018-04-26T14:45:39.355Z,66.24
2018-04-26T14:48:07.083Z,67.73
2018-04-26T14:50:34.740Z,67.32
2018-04-26T14:53:02.461Z,67.79
2018-04-26T14:55:30.096Z,67.81
2018-04-26T14:57:57.776Z,64.06
2018-04-26T15:00:25.466Z,65.98
2018-04-26T15:02:53.162Z,65.78
2018-04-26T15:05:21.447Z,64.39
2018-04-26T15:07:49.098Z,64.53
2018-04-26T15:10:16.766Z,65.98
2018-04-26T15:12:44.681Z,64.19
2018-04-26T15:15:12.431Z,65.47
2018-04-26T15:17:40.505Z,66.11
2018-04-26T15:20:08.372Z,65.15
2018-04-26T15:22:37.589Z,64.68
2018-04-26T15:25:06.160Z,66.36
2018-04-26T15:27:33.867Z,64.46
2018-04-26T15:30:01.682Z,66.80
2018-04-26T15:32:29.343Z,62.85
2018-04-26T15:34:57.090Z,64.79
2018-04-26T15:37:25.656Z,63.25
2018-04-26T15:39:53.354Z,64.94
2018-04-26T15:42:21.134Z,63.00
2018-04-26T15:44:48.790Z,64.92
2018-04-26T15:47:16.405Z,65.42
2018-04-26T15:49:44.097Z,64.46
2018-04-26T15:52:11.881Z,66.05
2018-04-26T15:55:00.325Z,68.25
2018-04-26T16:01:00.873Z,63.91
2018-04-26T16:03:40.214Z,66.00
2018-04-26T16:06:32.438Z,66.71
2018-04-26T16:09:11.983Z,66.54
2018-04-26T16:11:52.099Z,67.97
2018-04-26T16:14:35.325Z,68.68
2018-04-26T16:17:32.753Z,70.24
2018-04-26T16:20:18.692Z,69.63
2018-04-26T16:23:03.796Z,70.30
2018-04-26T16:25:43.629Z,70.42
2018-04-26T16:28:28.721Z,70.46
2018-04-26T16:31:13.867Z,68.89
2018-04-26T16:33:55.312Z,68.44
2018-04-26T16:36:34.613Z,67.88
2018-04-26T16:39:09.981Z,67.07
2018-04-26T16:41:37.712Z,67.65
2018-04-26T16:44:05.441Z,68.47
2018-04-26T16:46:33.127Z,69.68
2018-04-26T16:49:02.190Z,68.87
2018-04-26T16:51:29.849Z,69.97
2018-04-26T16:53:57.774Z,70.70
2018-04-26T16:56:25.762Z,70.77
2018-04-26T16:58:53.780Z,71.04
2018-04-26T17:01:22.059Z,72.03
2018-04-26T17:03:50.375Z,72.62
2018-04-26T17:06:20.259Z,72.74
2018-04-26T17:08:48.091Z,72.12
2018-04-26T17:11:16.839Z,71.71
2018-04-26T17:13:44.760Z,70.29
2018-04-26T17:16:12.791Z,70.71
2018-04-26T17:18:40.669Z,70.10
2018-04-26T17:21:08.429Z,70.73
2018-04-26T17:23:38.002Z,71.69
2018-04-26T17:26:07.534Z,69.76
2018-04-26T17:28:35.708Z,68.56
2018-04-26T17:31:03.829Z,71.63
2018-04-26T17:33:32.667Z,71.41
2018-04-26T17:36:01.668Z,73.05
2018-04-26T17:38:29.471Z,72.65
2018-04-26T17:40:57.573Z,73.36
2018-04-26T17:43:25.463Z,74.23
2018-04-26T17:45:54.555Z,72.56
2018-04-26T17:48:22.419Z,72.95
2018-04-26T17:50:51.008Z,72.97
2018-04-26T17:53:19.739Z,72.59
2018-04-26T17:55:47.556Z,72.50
2018-04-26T17:58:15.233Z,72.19
2018-04-26T18:00:43.089Z,72.17
2018-04-26T18:03:11.127Z,72.15
2018-04-26T18:05:38.816Z,72.36
2018-04-26T18:08:06.679Z,71.48
2018-04-26T18:10:34.762Z,70.55
2018-04-26T18:13:02.941Z,70.88
2018-04-26T18:15:31.034Z,71.58
2018-04-26T18:17:58.877Z,71.07
2018-04-26T18:20:26.929Z,72.10
2018-04-26T18:22:56.017Z,72.48
2018-04-26T18:25:23.702Z,73.10
2018-04-26T18:27:51.526Z,73.06
2018-04-26T18:30:19.748Z,72.37
2018-04-26T18:32:47.761Z,72.64
2018-04-26T18:35:15.465Z,72.11
2018-04-26T18:37:43.559Z,72.45
2018-04-26T18:40:11.685Z,72.12
2018-04-26T18:42:39.490Z,72.57
2018-04-26T18:45:10.342Z,73.54
2018-04-26T18:47:38.434Z,73.32
2018-04-26T18:50:06.288Z,72.71
2018-04-26T18:52:34.299Z,72.15
2018-04-26T18:55:02.422Z,72.46
2018-04-26T18:57:30.178Z,72.44
2018-04-26T18:59:58.109Z,72.33
2018-04-26T19:02:25.978Z,72.47
2018-04-26T19:04:53.654Z,72.39
2018-04-26T19:07:21.426Z,71.45
2018-04-26T19:09:49.644Z,72.08
2018-04-26T19:12:17.272Z,71.96
2018-04-26T19:14:44.963Z,71.09
2018-04-26T19:17:12.631Z,72.12
2018-04-26T19:19:40.281Z,71.57
2018-04-26T19:22:08.004Z,71.39
2018-04-26T19:24:35.737Z,71.20
2018-04-26T19:27:03.328Z,71.57
2018-04-26T19:29:31.752Z,71.60
2018-04-26T19:31:59.396Z,70.06
2018-04-26T19:34:27.067Z,70.50
2018-04-26T19:36:54.734Z,72.08
2018-04-26T19:39:22.508Z,71.77
2018-04-26T19:41:50.154Z,72.39
2018-04-26T19:44:17.824Z,71.55
2018-04-26T19:46:46.479Z,71.37
2018-04-26T19:49:14.156Z,71.89
2018-04-26T19:51:41.884Z,71.79
2018-04-26T19:54:09.585Z,72.55
2018-04-26T19:56:37.315Z,72.56
2018-04-26T19:59:04.935Z,72.54
2018-04-26T20:01:32.614Z,73.94
2018-04-26T20:04:00.317Z,75.11
2018-04-26T20:06:27.978Z,77.08
2018-04-26T20:08:55.625Z,76.59
2018-04-26T20:11:23.339Z,76.17
2018-04-26T20:13:50.971Z,76.82
2018-04-26T20:16:18.657Z,76.77
2018-04-26T20:18:46.358Z,76.73
2018-04-26T20:21:14.054Z,76.79
2018-04-26T20:23:41.650Z,76.98
2018-04-26T20:26:09.334Z,77.11
2018-04-26T20:28:36.970Z,77.40
2018-04-26T20:31:04.728Z,77.05
2018-04-26T20:33:32.371Z,77.06
2018-04-26T20:36:00.066Z,76.86
2018-04-26T20:38:27.710Z,76.79
2018-04-26T20:40:55.404Z,77.79
2018-04-26T20:43:23.048Z,77.93
2018-04-26T20:45:50.756Z,77.94
2018-04-26T20:48:30.040Z,77.93
2018-04-26T20:50:57.724Z,77.46
2018-04-26T20:53:25.309Z,77.75
2018-04-26T20:55:52.984Z,78.04
2018-04-26T20:58:20.644Z,78.04
2018-04-26T21:00:48.313Z,77.83
2018-04-26T21:03:15.985Z,78.39
2018-04-26T21:05:43.753Z,79.31
2018-04-26T21:08:11.351Z,79.05
2018-04-26T21:10:39.243Z,79.20
2018-04-26T21:13:06.897Z,79.58
2018-04-26T21:15:34.557Z,80.68
2018-04-26T21:18:02.289Z,79.91
2018-04-26T21:20:29.892Z,79.37
2018-04-26T21:22:57.474Z,79.41
2018-04-26T21:25:25.165Z,78.96
2018-04-26T21:27:52.808Z,79.13
2018-04-26T21:30:20.406Z,79.78
2018-04-26T21:32:48.036Z,79.64
2018-04-26T21:35:15.695Z,79.70
2018-04-26T21:37:43.319Z,79.96
2018-04-26T21:40:10.926Z,80.06
2018-04-26T21:42:38.644Z,80.01
2018-04-26T21:45:06.293Z,80.31
2018-04-26T21:47:33.941Z,80.05
2018-04-26T21:50:07.317Z,79.61
2018-04-26T21:52:40.458Z,79.82
2018-04-26T21:55:13.498Z,79.92
2018-04-26T21:57:46.805Z,79.49
2018-04-26T22:00:20.031Z,80.43
2018-04-26T22:02:47.116Z,79.87
2018-04-26T22:05:33.277Z,79.90
2018-04-26T22:08:01.053Z,80.28
2018-04-26T22:10:28.750Z,80.00
2018-04-26T22:12:56.407Z,80.13
2018-04-26T22:15:24.265Z,80.30
2018-04-26T22:17:51.836Z,81.57
2018-04-26T22:20:19.452Z,80.52
2018-04-26T22:22:47.074Z,80.60
2018-04-26T22:25:14.662Z,79.61
2018-04-26T22:27:42.283Z,79.45
2018-04-26T22:30:11.400Z,79.74
2018-04-26T22:32:39.025Z,80.48
2018-04-26T22:35:06.780Z,80.76
2018-04-26T22:37:34.401Z,80.60
2018-04-26T22:40:01.986Z,80.58
2018-04-26T22:42:29.622Z,80.26
2018-04-26T22:44:57.239Z,80.01
2018-04-26T22:47:24.893Z,81.22
2018-04-26T22:49:52.465Z,80.88
2018-04-26T22:52:20.114Z,81.52
2018-04-26T22:54:47.707Z,80.72
2018-04-26T22:57:15.353Z,80.77
2018-04-26T22:59:42.973Z,81.01
2018-04-26T23:02:10.636Z,80.65
2018-04-26T23:04:38.338Z,81.12
2018-04-26T23:07:05.947Z,81.17
2018-04-26T23:09:33.592Z,80.93
2018-04-26T23:12:01.268Z,80.69
2018-04-26T23:14:28.894Z,81.74
2018-04-26T23:16:56.575Z,82.03
2018-04-26T23:19:24.200Z,81.54
2018-04-26T23:21:51.899Z,81.41
2018-04-26T23:24:19.488Z,82.15
2018-04-26T23:26:47.084Z,82.19
2018-04-26T23:29:14.714Z,82.14
2018-04-26T23:31:42.380Z,82.15
2018-04-26T23:34:10.013Z,81.74
2018-04-26T23:36:37.635Z,81.88
2018-04-26T23:39:06.239Z,81.85
2018-04-26T23:41:33.843Z,82.13
2018-04-26T23:44:01.504Z,81.73
2018-04-26T23:46:29.165Z,81.13
2018-04-26T23:48:56.801Z,80.59
2018-04-26T23:51:24.491Z,81.66
2018-04-26T23:53:52.064Z,82.36
2018-04-26T23:56:19.719Z,82.91
2018-04-26T23:58:47.345Z,83.47
